Time;durP1;ratioP1;P1;durP2;ratioP2;P2;SDS_P1;SDS_P2;PMS_P1;PMS_P2;Temp;Humidity;BMP_temperature;BMP_pressure;BME280_temperature;BME280_humidity;BME280_pressure;Samples;Min_cycle;Max_cycle;Signal;HPM_P1;HPM_P2
2022/02/03 00:00:16;;;;;;;;;;;9.90;99.90;;;;;;4934281;29;19935;-84
2022/02/03 00:03:12;;;;;;;;;;;10.00;99.90;;;;;;4818930;28;10000347;-83
2022/02/03 00:08:49;;;;;;;;;;;10.00;99.90;;;;;;4947980;29;19934;-83
2022/02/03 00:11:39;;;;;;;;;;;9.90;99.90;;;;;;4932147;29;19930;-84
2022/02/03 00:21:59;;;;;;;;;;;10.40;99.90;;;;;;4935219;29;19960;-84
2022/02/03 00:25:21;;;;;;;;;;;10.00;99.90;;;;;;4916244;29;19931;-84
2022/02/03 00:28:06;;;;;;;;;;;9.90;99.90;;;;;;4917789;29;19938;-84
2022/02/03 00:49:38;;;;;;;;;;;9.90;99.90;;;;;;4915159;29;19931;-84
2022/02/03 00:52:09;;;;;;;;;;;10.30;99.90;;;;;;4927214;29;19927;-85
2022/02/03 00:54:38;;;;;;;;;;;10.00;99.90;;;;;;4970026;28;19931;-85
2022/02/03 00:57:14;;;;;;;;;;;9.90;99.90;;;;;;4950209;29;19937;-84
2022/02/03 00:59:56;;;;;;;;;;;10.00;99.90;;;;;;4935617;29;20005;-83
2022/02/03 01:02:27;;;;;;;;;;;10.70;99.90;;;;;;4920668;29;19937;-84
2022/02/03 01:04:58;;;;;;;;;;;10.00;99.90;;;;;;4920296;29;20090;-82
2022/02/03 01:07:31;;;;;;;;;;;10.10;99.90;;;;;;4951405;29;19933;-84
2022/02/03 01:10:10;;;;;;;;;;;9.20;99.90;;;;;;4934969;29;20022;-84
2022/02/03 01:13:13;;;;;;;;;;;9.90;99.90;;;;;;4935113;29;19941;-83
2022/02/03 01:15:51;;;;;;;;;;;9.90;99.90;;;;;;4935321;29;19927;-85
2022/02/03 01:44:16;;;;;;;;;;;9.70;99.90;;;;;;4952612;29;19995;-85
2022/02/03 01:52:33;;;;;;;;;;;9.80;99.90;;;;;;4931063;29;19934;-84
2022/02/03 01:55:05;;;;;;;;;;;10.00;99.90;;;;;;4919909;29;19935;-85
2022/02/03 01:57:55;;;;;;;;;;;9.70;99.90;;;;;;4975655;28;19931;-84
2022/02/03 02:00:23;;;;;;;;;;;9.80;99.90;;;;;;4942851;28;19937;-84
2022/02/03 02:03:13;;;;;;;;;;;11.00;99.90;;;;;;4974559;28;19922;-84
2022/02/03 02:06:02;;;;;;;;;;;9.90;99.90;;;;;;4935196;29;19926;-84
2022/02/03 02:08:45;;;;;;;;;;;9.50;99.90;;;;;;4919859;29;19934;-82
2022/02/03 02:11:35;;;;;;;;;;;8.10;99.90;;;;;;4953932;29;19934;-83
2022/02/03 02:39:57;;;;;;;;;;;9.50;99.90;;;;;;4954889;28;19926;-84
2022/02/03 02:42:54;;;;;;;;;;;9.50;99.90;;;;;;4971896;28;19930;-84
2022/02/03 02:45:38;;;;;;;;;;;10.40;99.90;;;;;;4944649;28;19933;-84
2022/02/03 02:48:09;;;;;;;;;;;9.40;99.90;;;;;;4953251;29;19933;-84
2022/02/03 02:50:54;;;;;;;;;;;9.40;99.90;;;;;;4954332;28;19957;-85
2022/02/03 02:54:03;;;;;;;;;;;9.50;99.90;;;;;;4639934;28;9999994;-85
2022/02/03 02:56:48;;;;;;;;;;;9.30;99.90;;;;;;4971510;29;19931;-83
2022/02/03 02:59:49;;;;;;;;;;;9.40;99.90;;;;;;4952627;28;19930;-85
2022/02/03 03:31:32;;;;;;;;;;;9.10;99.90;;;;;;4985866;28;19926;-85
2022/02/03 03:33:49;;;;;;;;;;;9.20;99.90;;;;;;4968663;28;19930;-84
2022/02/03 03:36:20;;;;;;;;;;;10.70;99.90;;;;;;4987227;28;19926;-84
2022/02/03 03:38:50;;;;;;;;;;;8.90;99.90;;;;;;4970636;28;19936;-84
2022/02/03 03:41:22;;;;;;;;;;;9.20;99.90;;;;;;4969331;28;19949;-83
2022/02/03 03:43:54;;;;;;;;;;;9.10;99.90;;;;;;4938760;29;19926;-84
2022/02/03 03:46:27;;;;;;;;;;;9.20;99.90;;;;;;4968616;29;19927;-85
2022/02/03 03:49:30;;;;;;;;;;;9.30;99.90;;;;;;4953893;29;19931;-84
2022/02/03 03:52:12;;;;;;;;;;;9.20;99.90;;;;;;4983794;28;19926;-84
2022/02/03 03:55:06;;;;;;;;;;;9.00;99.90;;;;;;4954315;29;19927;-83
2022/02/03 04:37:21;;;;;;;;;;;7.80;99.90;;;;;;4950190;29;19927;-84
2022/02/03 04:42:01;;;;;;;;;;;9.00;99.90;;;;;;4965639;29;19930;-84
2022/02/03 04:53:51;;;;;;;;;;;9.80;99.90;;;;;;4973270;28;19926;-84
2022/02/03 04:56:56;;;;;;;;;;;8.60;99.90;;;;;;4969763;29;19927;-86
2022/02/03 05:03:04;;;;;;;;;;;8.80;99.90;;;;;;4980995;28;19932;-84
2022/02/03 05:06:02;;;;;;;;;;;8.80;99.90;;;;;;4989678;28;19937;-86
2022/02/03 05:08:45;;;;;;;;;;;8.80;99.90;;;;;;4991110;28;19938;-85
2022/02/03 05:15:01;;;;;;;;;;;7.20;99.90;;;;;;4991007;28;19930;-84
2022/02/03 05:26:22;;;;;;;;;;;9.20;99.90;;;;;;4991273;28;20449;-83
2022/02/03 05:35:08;;;;;;;;;;;8.60;99.90;;;;;;4988066;28;19999;-84
2022/02/03 05:43:45;;;;;;;;;;;8.40;99.90;;;;;;4982095;28;19936;-84
2022/02/03 06:05:59;;;;;;;;;;;8.20;99.90;;;;;;4953736;29;19932;-83
2022/02/03 06:08:51;;;;;;;;;;;8.20;99.90;;;;;;4989016;28;19926;-83
2022/02/03 06:14:19;;;;;;;;;;;8.40;99.90;;;;;;4989460;28;19930;-84
2022/02/03 06:17:06;;;;;;;;;;;8.10;99.90;;;;;;4972685;28;19926;-84
2022/02/03 06:22:41;;;;;;;;;;;8.30;99.90;;;;;;4971419;29;20367;-85
2022/02/03 06:27:59;;;;;;;;;;;8.50;99.90;;;;;;4969659;28;19926;-84
2022/02/03 06:30:29;;;;;;;;;;;8.30;99.90;;;;;;4969535;29;20029;-83
2022/02/03 06:32:58;;;;;;;;;;;8.10;99.90;;;;;;4970017;28;19927;-85
2022/02/03 06:35:26;;;;;;;;;;;7.00;99.90;;;;;;4939825;29;19952;-84
2022/02/03 06:37:54;;;;;;;;;;;6.30;99.90;;;;;;4970917;28;19941;-84
2022/02/03 06:40:23;;;;;;;;;;;8.00;99.90;;;;;;4972005;29;19931;-84
2022/02/03 06:42:56;;;;;;;;;;;8.50;99.90;;;;;;4972377;28;19927;-83
2022/02/03 06:45:40;;;;;;;;;;;8.10;99.90;;;;;;4971287;28;19922;-83
2022/02/03 06:48:16;;;;;;;;;;;8.10;99.90;;;;;;4970514;28;19945;-82
2022/02/03 06:50:53;;;;;;;;;;;8.30;99.90;;;;;;4954522;28;20540;-81
2022/02/03 06:53:31;;;;;;;;;;;8.00;99.90;;;;;;4984838;28;19926;-84
2022/02/03 06:56:16;;;;;;;;;;;8.10;99.90;;;;;;4966020;28;19927;-84
2022/02/03 06:58:52;;;;;;;;;;;8.00;99.90;;;;;;4936662;29;19934;-83
2022/02/03 07:01:37;;;;;;;;;;;6.80;99.90;;;;;;4966943;28;19934;-84
2022/02/03 07:04:14;;;;;;;;;;;7.00;99.90;;;;;;4968306;29;19936;-85
2022/02/03 07:06:45;;;;;;;;;;;8.00;99.90;;;;;;4968517;29;19936;-83
2022/02/03 07:09:17;;;;;;;;;;;8.00;99.90;;;;;;4976376;28;19937;-85
2022/02/03 07:11:46;;;;;;;;;;;7.90;99.90;;;;;;4953382;29;19940;-83
2022/02/03 07:14:31;;;;;;;;;;;8.20;99.90;;;;;;4969901;29;20486;-84
2022/02/03 07:17:03;;;;;;;;;;;8.40;99.90;;;;;;4982648;28;19930;-85
2022/02/03 07:19:43;;;;;;;;;;;6.60;99.90;;;;;;4969566;28;19930;-83
2022/02/03 07:22:21;;;;;;;;;;;8.00;99.90;;;;;;4954500;28;19934;-81
2022/02/03 07:24:52;;;;;;;;;;;8.00;99.90;;;;;;4969214;28;19927;-82
2022/02/03 07:27:23;;;;;;;;;;;6.90;99.90;;;;;;4983998;28;19930;-84
2022/02/03 07:30:03;;;;;;;;;;;7.10;99.90;;;;;;4972076;28;19930;-83
2022/02/03 07:32:37;;;;;;;;;;;6.60;99.90;;;;;;4969150;28;20498;-82
2022/02/03 07:35:05;;;;;;;;;;;7.90;99.90;;;;;;4949174;28;20449;-81
2022/02/03 07:37:41;;;;;;;;;;;9.80;99.90;;;;;;4967685;28;19934;-81
2022/02/03 07:40:11;;;;;;;;;;;8.10;99.90;;;;;;4967184;28;19942;-83
2022/02/03 07:42:49;;;;;;;;;;;7.80;99.90;;;;;;4873003;28;10000177;-82
2022/02/03 07:45:21;;;;;;;;;;;7.70;99.90;;;;;;4973335;28;19933;-83
2022/02/03 07:47:52;;;;;;;;;;;7.90;99.90;;;;;;4958359;28;19930;-81
2022/02/03 07:50:29;;;;;;;;;;;6.30;99.90;;;;;;4964596;28;20527;-82
2022/02/03 07:52:58;;;;;;;;;;;7.90;99.90;;;;;;4962560;28;19926;-82
2022/02/03 07:55:26;;;;;;;;;;;7.90;99.90;;;;;;4942050;29;20451;-83
2022/02/03 07:57:55;;;;;;;;;;;7.90;99.90;;;;;;4955488;29;19941;-82
2022/02/03 08:00:24;;;;;;;;;;;7.90;99.90;;;;;;4961877;29;19926;-82
2022/02/03 08:03:14;;;;;;;;;;;8.00;99.90;;;;;;4952445;29;19930;-82
2022/02/03 08:05:46;;;;;;;;;;;8.10;99.90;;;;;;4964535;29;19936;-83
2022/02/03 08:08:24;;;;;;;;;;;8.10;99.90;;;;;;4964861;29;19927;-84
2022/02/03 08:10:58;;;;;;;;;;;8.10;99.90;;;;;;4976001;28;19936;-83
2022/02/03 08:13:37;;;;;;;;;;;8.20;99.90;;;;;;4964658;28;19930;-83
2022/02/03 08:16:14;;;;;;;;;;;8.20;99.90;;;;;;4949071;29;19931;-83
2022/02/03 08:18:47;;;;;;;;;;;8.30;99.90;;;;;;4965682;28;19935;-83
2022/02/03 08:21:17;;;;;;;;;;;8.40;99.90;;;;;;4950441;29;20331;-84
2022/02/03 08:31:39;;;;;;;;;;;8.50;99.90;;;;;;4965561;28;20318;-83
2022/02/03 08:34:13;;;;;;;;;;;8.50;99.90;;;;;;4965206;29;19930;-84
2022/02/03 08:36:42;;;;;;;;;;;8.50;99.90;;;;;;4963044;28;20318;-83
2022/02/03 08:39:11;;;;;;;;;;;8.60;99.90;;;;;;4964960;28;19926;-82
2022/02/03 08:41:40;;;;;;;;;;;8.50;99.90;;;;;;4973159;28;19938;-83
2022/02/03 08:44:09;;;;;;;;;;;8.50;99.90;;;;;;4963276;29;19937;-83
2022/02/03 08:46:37;;;;;;;;;;;8.50;99.90;;;;;;4963799;28;19926;-83
2022/02/03 08:49:07;;;;;;;;;;;8.40;99.90;;;;;;4965004;28;19930;-83
2022/02/03 08:51:36;;;;;;;;;;;8.70;99.90;;;;;;4966711;28;19937;-83
2022/02/03 08:54:10;;;;;;;;;;;8.70;99.90;;;;;;4996689;28;20502;-82
2022/02/03 08:56:51;;;;;;;;;;;8.50;99.90;;;;;;4969326;28;19941;-82
2022/02/03 09:35:45;;;;;;;;;;;9.30;99.90;;;;;;4953515;28;19926;-83
2022/02/03 09:54:54;;;;;;;;;;;9.70;99.90;;;;;;4969714;28;20367;-82
2022/02/03 10:06:14;;;;;;;;;;;8.90;99.90;;;;;;4984222;28;19930;-83
2022/02/03 10:08:54;;;;;;;;;;;9.60;99.90;;;;;;4990743;28;19938;-83
2022/02/03 10:11:23;;;;;;;;;;;9.80;99.90;;;;;;4943548;28;19938;-83
2022/02/03 10:13:52;;;;;;;;;;;10.20;99.90;;;;;;4952539;28;19949;-83
2022/02/03 10:16:21;;;;;;;;;;;9.60;99.90;;;;;;4949881;28;19927;-82
2022/02/03 10:19:00;;;;;;;;;;;9.80;99.90;;;;;;4976129;28;19930;-83
2022/02/03 10:21:28;;;;;;;;;;;9.80;99.90;;;;;;4988296;28;19933;-83
2022/02/03 10:23:58;;;;;;;;;;;9.80;99.90;;;;;;4966012;28;19935;-84
2022/02/03 10:26:51;;;;;;;;;;;9.80;99.90;;;;;;4948534;28;19934;-84
2022/02/03 10:29:20;;;;;;;;;;;9.80;99.90;;;;;;4974937;28;19933;-83
2022/02/03 10:31:49;;;;;;;;;;;8.90;99.90;;;;;;4980310;28;19937;-83
2022/02/03 10:34:25;;;;;;;;;;;9.80;99.90;;;;;;4981690;28;19937;-83
2022/02/03 10:37:21;;;;;;;;;;;9.60;99.90;;;;;;4965832;28;19933;-82
2022/02/03 10:40:28;;;;;;;;;;;9.90;99.90;;;;;;4982790;28;19937;-84
2022/02/03 10:43:32;;;;;;;;;;;10.00;99.90;;;;;;4990750;28;19934;-83
2022/02/03 10:49:06;;;;;;;;;;;10.10;99.90;;;;;;4980163;28;19933;-83
2022/02/03 10:52:03;;;;;;;;;;;10.10;99.90;;;;;;4964551;28;19956;-84
2022/02/03 11:08:13;;;;;;;;;;;10.60;99.90;;;;;;4966911;28;20350;-82
2022/02/03 11:10:44;;;;;;;;;;;10.60;99.90;;;;;;4950713;28;19937;-83
2022/02/03 11:13:13;;;;;;;;;;;10.50;99.90;;;;;;4945978;28;19941;-83
2022/02/03 11:15:42;;;;;;;;;;;10.70;99.90;;;;;;4963028;28;19941;-83
2022/02/03 11:18:14;;;;;;;;;;;10.70;99.90;;;;;;4995257;28;19930;-82
2022/02/03 11:20:43;;;;;;;;;;;10.70;99.90;;;;;;4982355;28;19937;-83
2022/02/03 11:23:24;;;;;;;;;;;10.80;99.90;;;;;;4955545;28;19947;-82
2022/02/03 12:03:42;;;;;;;;;;;10.80;99.90;;;;;;4980641;28;19926;-84
2022/02/03 12:07:11;;;;;;;;;;;10.80;99.90;;;;;;4999282;28;19925;-83
2022/02/03 12:20:37;;;;;;;;;;;11.00;99.90;;;;;;4980201;28;19937;-83
2022/02/03 12:23:27;;;;;;;;;;;10.90;99.90;;;;;;4946081;28;19934;-83
2022/02/03 12:26:02;;;;;;;;;;;11.00;99.90;;;;;;4951316;28;19932;-83
2022/02/03 12:28:47;;;;;;;;;;;11.00;99.90;;;;;;4983818;28;19930;-84
2022/02/03 12:39:14;;;;;;;;;;;10.90;99.90;;;;;;4999674;28;19934;-82
2022/02/03 12:42:00;;;;;;;;;;;11.00;99.90;;;;;;4986632;28;19926;-84
2022/02/03 12:44:30;;;;;;;;;;;11.20;99.90;;;;;;4639085;28;10000358;-83
2022/02/03 12:47:02;;;;;;;;;;;11.10;99.90;;;;;;4968379;28;19930;-83
2022/02/03 12:49:35;;;;;;;;;;;11.20;99.90;;;;;;4978738;28;19937;-89
2022/02/03 12:52:23;;;;;;;;;;;11.20;99.90;;;;;;4971070;28;19930;-83
2022/02/03 12:54:52;;;;;;;;;;;11.10;99.90;;;;;;5002560;28;19926;-86
2022/02/03 12:57:31;;;;;;;;;;;11.10;99.90;;;;;;4970704;28;19938;-84
2022/02/03 13:00:16;;;;;;;;;;;10.90;99.90;;;;;;4972882;28;19936;-81
2022/02/03 13:03:00;;;;;;;;;;;11.00;99.90;;;;;;4971129;28;20390;-82
2022/02/03 13:05:30;;;;;;;;;;;11.30;99.90;;;;;;4988631;28;19926;-82
2022/02/03 13:07:59;;;;;;;;;;;11.20;99.90;;;;;;4970898;28;19934;-82
2022/02/03 13:10:31;;;;;;;;;;;11.20;99.90;;;;;;4951643;28;20208;-82
2022/02/03 13:13:39;;;;;;;;;;;11.10;99.90;;;;;;4969296;28;19933;-83
2022/02/03 13:16:09;;;;;;;;;;;11.10;99.90;;;;;;4947865;28;19926;-83
2022/02/03 13:18:48;;;;;;;;;;;11.10;99.90;;;;;;4949105;28;19934;-83
2022/02/03 13:21:50;;;;;;;;;;;11.10;99.90;;;;;;4954076;28;20391;-83
2022/02/03 13:26:58;;;;;;;;;;;11.20;99.90;;;;;;4970229;28;19930;-83
2022/02/03 13:29:40;;;;;;;;;;;11.20;99.90;;;;;;4959550;28;19960;-84
2022/02/03 13:32:20;;;;;;;;;;;11.40;99.90;;;;;;5001912;28;19930;-82
2022/02/03 13:35:06;;;;;;;;;;;11.30;99.90;;;;;;4969378;28;19930;-83
2022/02/03 13:37:40;;;;;;;;;;;11.20;99.90;;;;;;4986427;28;19930;-82
2022/02/03 13:40:17;;;;;;;;;;;10.60;99.90;;;;;;4977672;28;19933;-82
2022/02/03 13:42:49;;;;;;;;;;;11.20;99.90;;;;;;4970044;28;19941;-83
2022/02/03 13:45:20;;;;;;;;;;;11.20;99.90;;;;;;4988225;28;19926;-82
2022/02/03 13:47:49;;;;;;;;;;;11.10;99.90;;;;;;4987781;28;19930;-82
2022/02/03 13:50:27;;;;;;;;;;;11.20;99.90;;;;;;4970027;28;20256;-82
2022/02/03 13:53:06;;;;;;;;;;;11.10;99.90;;;;;;4988232;28;19929;-83
2022/02/03 14:20:47;;;;;;;;;;;11.20;99.90;;;;;;4989029;28;19930;-83
2022/02/03 14:28:34;;;;;;;;;;;11.00;99.90;;;;;;4988243;28;19930;-83
2022/02/03 14:31:07;;;;;;;;;;;11.00;99.90;;;;;;4968648;28;20785;-84
2022/02/03 14:33:42;;;;;;;;;;;11.00;99.90;;;;;;4968015;28;19941;-84
2022/02/03 14:36:14;;;;;;;;;;;11.00;99.90;;;;;;4966750;28;19933;-84
2022/02/03 14:38:49;;;;;;;;;;;11.30;99.90;;;;;;4966477;28;19929;-84
2022/02/03 14:41:25;;;;;;;;;;;10.90;99.90;;;;;;5003683;28;19936;-83
2022/02/03 14:43:53;;;;;;;;;;;10.90;99.90;;;;;;4987949;28;19945;-83
2022/02/03 14:46:29;;;;;;;;;;;10.50;99.90;;;;;;4980704;28;20014;-84
2022/02/03 14:48:57;;;;;;;;;;;10.80;99.90;;;;;;4985274;28;19930;-83
2022/02/03 14:51:30;;;;;;;;;;;10.80;99.90;;;;;;4990244;28;19927;-83
2022/02/03 14:59:12;;;;;;;;;;;10.70;99.90;;;;;;4984661;28;19930;-84
2022/02/03 15:01:40;;;;;;;;;;;11.00;99.90;;;;;;4983561;28;19927;-83
2022/02/03 15:04:12;;;;;;;;;;;10.70;99.90;;;;;;4986538;28;19950;-84
2022/02/03 15:06:51;;;;;;;;;;;10.70;99.90;;;;;;4953460;28;19930;-86
2022/02/03 15:12:37;;;;;;;;;;;10.80;99.90;;;;;;4945210;29;19926;-85
2022/02/03 15:15:36;;;;;;;;;;;10.80;99.90;;;;;;4951226;28;19930;-86
2022/02/03 15:18:12;;;;;;;;;;;10.30;99.90;;;;;;4968460;28;19927;-85
2022/02/03 15:20:57;;;;;;;;;;;10.70;99.90;;;;;;4985069;28;19937;-86
2022/02/03 15:23:29;;;;;;;;;;;10.80;99.90;;;;;;5006468;28;19944;-85
2022/02/03 15:25:58;;;;;;;;;;;10.60;99.90;;;;;;4975753;28;20354;-86
2022/02/03 15:28:57;;;;;;;;;;;11.10;99.90;;;;;;4990725;28;19936;-88
2022/02/03 15:32:14;;;;;;;;;;;11.10;99.90;;;;;;4999699;28;19933;-85
2022/02/03 15:38:56;;;;;;;;;;;10.70;99.90;;;;;;4998433;28;19930;-85
2022/02/03 15:42:08;;;;;;;;;;;10.80;99.90;;;;;;4958057;28;19942;-84
2022/02/03 15:45:10;;;;;;;;;;;10.70;99.90;;;;;;4998591;28;19998;-86
2022/02/03 15:48:11;;;;;;;;;;;10.80;99.90;;;;;;4961120;28;20018;-85
2022/02/03 15:51:01;;;;;;;;;;;10.80;99.90;;;;;;4987545;28;19932;-87
2022/02/03 15:56:30;;;;;;;;;;;11.10;99.90;;;;;;5003369;28;19942;-86
2022/02/03 16:17:19;;;;;;;;;;;10.60;99.90;;;;;;4964259;28;19926;-83
2022/02/03 16:22:36;;;;;;;;;;;10.60;99.90;;;;;;4981240;28;19926;-84
2022/02/03 16:51:08;;;;;;;;;;;10.40;99.90;;;;;;5000887;28;19931;-83
2022/02/03 16:53:36;;;;;;;;;;;10.50;99.90;;;;;;4998047;28;19926;-82
2022/02/03 16:56:09;;;;;;;;;;;10.30;99.90;;;;;;4969111;28;20510;-86
2022/02/03 16:58:49;;;;;;;;;;;12.00;99.90;;;;;;5002680;28;19940;-85
2022/02/03 17:01:50;;;;;;;;;;;9.80;99.90;;;;;;4942751;28;19934;-85
2022/02/03 17:04:51;;;;;;;;;;;10.40;99.90;;;;;;4999124;28;19929;-85
2022/02/03 17:07:27;;;;;;;;;;;10.90;99.90;;;;;;4970965;28;19934;-85
2022/02/03 17:09:58;;;;;;;;;;;10.30;99.90;;;;;;4996788;28;19956;-85
2022/02/03 17:17:27;;;;;;;;;;;10.10;99.90;;;;;;4961583;28;19934;-87
2022/02/03 17:21:40;;;;;;;;;;;;;;;;;;;;;
2022/02/03 17:25:34;;;;;;;;;;;11.50;99.90;;;;;;4879963;29;19926;-85
2022/02/03 17:31:49;;;;;;;;;;;10.20;99.90;;;;;;4896145;29;19927;-84
2022/02/03 18:05:39;;;;;;;;;;;10.20;99.90;;;;;;4970605;28;19931;-84
2022/02/03 18:52:11;;;;;;;;;;;8.60;99.90;;;;;;4985331;28;19934;-81
2022/02/03 18:55:01;;;;;;;;;;;10.10;99.90;;;;;;4975544;28;19934;-81
2022/02/03 19:00:37;;;;;;;;;;;10.10;99.90;;;;;;4981239;28;19952;-81
2022/02/03 19:15:05;;;;;;;;;;;10.10;99.90;;;;;;4967000;28;19945;-82
2022/02/03 19:26:35;;;;;;;;;;;10.00;99.90;;;;;;4985138;28;19930;-81
2022/02/03 20:04:12;;;;;;;;;;;9.70;99.90;;;;;;4998853;28;19932;-81
2022/02/03 20:06:55;;;;;;;;;;;9.70;99.90;;;;;;4985195;28;19930;-82
2022/02/03 20:12:20;;;;;;;;;;;9.60;99.90;;;;;;4990732;28;20148;-80
2022/02/03 20:15:00;;;;;;;;;;;10.20;99.90;;;;;;4986474;28;19930;-81
2022/02/03 20:17:31;;;;;;;;;;;9.60;99.90;;;;;;4987896;28;19949;-81
2022/02/03 20:19:59;;;;;;;;;;;9.70;99.90;;;;;;4989253;28;20211;-81
2022/02/03 20:22:33;;;;;;;;;;;10.00;99.90;;;;;;5001711;28;20040;-82
2022/02/03 20:25:07;;;;;;;;;;;9.70;99.90;;;;;;4971368;28;19926;-82
2022/02/03 20:27:44;;;;;;;;;;;9.70;99.90;;;;;;5004149;28;19934;-82
2022/02/03 20:30:12;;;;;;;;;;;9.70;99.90;;;;;;4973995;28;19937;-81
2022/02/03 20:32:53;;;;;;;;;;;9.70;99.90;;;;;;4969336;28;19929;-83
2022/02/03 20:35:22;;;;;;;;;;;9.80;99.90;;;;;;4984592;28;19934;-83
2022/02/03 20:37:52;;;;;;;;;;;9.70;99.90;;;;;;4989252;28;19969;-82
2022/02/03 20:40:20;;;;;;;;;;;9.50;99.90;;;;;;4973816;28;20584;-81
2022/02/03 20:42:48;;;;;;;;;;;9.70;99.90;;;;;;4973312;28;19949;-89
2022/02/03 20:45:44;;;;;;;;;;;9.90;99.90;;;;;;4990482;28;19934;-83
2022/02/03 20:48:16;;;;;;;;;;;8.80;99.90;;;;;;5004453;28;19927;-82
2022/02/03 20:50:49;;;;;;;;;;;9.80;99.90;;;;;;5007664;28;19934;-83
2022/02/03 20:53:20;;;;;;;;;;;9.50;99.90;;;;;;5012072;28;19910;-81
2022/02/03 20:55:49;;;;;;;;;;;9.60;99.90;;;;;;5007115;28;19934;-81
2022/02/03 20:58:20;;;;;;;;;;;9.60;99.90;;;;;;5009508;28;19933;-80
2022/02/03 21:05:49;;;;;;;;;;;9.50;99.90;;;;;;4976245;28;19941;-82
2022/02/03 21:08:29;;;;;;;;;;;9.50;99.90;;;;;;4987157;28;19926;-81
2022/02/03 21:11:03;;;;;;;;;;;9.50;99.90;;;;;;4947410;28;19926;-81
2022/02/03 21:13:33;;;;;;;;;;;8.70;99.90;;;;;;4975554;28;19934;-83
2022/02/03 21:16:03;;;;;;;;;;;9.40;99.90;;;;;;4975106;28;19926;-80
2022/02/03 21:18:36;;;;;;;;;;;9.30;99.90;;;;;;4992350;28;19973;-88
2022/02/03 21:21:07;;;;;;;;;;;10.20;99.90;;;;;;4971655;28;19930;-82
2022/02/03 21:30:10;;;;;;;;;;;8.90;99.90;;;;;;4899337;29;19943;-83
2022/02/03 21:32:51;;;;;;;;;;;9.10;99.90;;;;;;4864903;29;19939;-83
2022/02/03 21:35:23;;;;;;;;;;;9.10;99.90;;;;;;4874761;29;19938;-81
2022/02/03 21:37:51;;;;;;;;;;;9.30;99.90;;;;;;4877046;29;19932;-83
2022/02/03 21:40:20;;;;;;;;;;;9.10;99.90;;;;;;4863403;29;19928;-82
2022/02/03 21:42:52;;;;;;;;;;;9.10;99.90;;;;;;4876215;29;19928;-81
2022/02/03 21:45:22;;;;;;;;;;;9.10;99.90;;;;;;4873607;29;19932;-88
2022/02/03 21:47:51;;;;;;;;;;;9.10;99.90;;;;;;4880121;29;19916;-85
2022/02/03 21:50:23;;;;;;;;;;;9.20;99.90;;;;;;4861854;29;19928;-87
2022/02/03 21:52:54;;;;;;;;;;;9.20;99.90;;;;;;4878331;29;19928;-87
2022/02/03 21:55:24;;;;;;;;;;;9.50;99.90;;;;;;4887459;29;19936;-82
2022/02/03 21:57:56;;;;;;;;;;;9.20;99.90;;;;;;4873627;29;19931;-82
2022/02/03 22:00:26;;;;;;;;;;;9.50;99.90;;;;;;4875025;29;19968;-81
2022/02/03 22:02:54;;;;;;;;;;;9.50;99.90;;;;;;4874801;29;19935;-82
2022/02/03 22:05:22;;;;;;;;;;;8.70;99.90;;;;;;4860382;29;20015;-81
2022/02/03 22:07:51;;;;;;;;;;;9.20;99.90;;;;;;4876735;29;19935;-82
2022/02/03 22:10:20;;;;;;;;;;;9.30;99.90;;;;;;4860345;29;19948;-83
2022/02/03 22:12:50;;;;;;;;;;;9.20;99.90;;;;;;4876039;29;19934;-84
2022/02/03 22:15:18;;;;;;;;;;;9.20;99.90;;;;;;4887875;29;19931;-83
2022/02/03 22:17:52;;;;;;;;;;;9.20;99.90;;;;;;4840316;29;19931;-82
2022/02/03 22:20:38;;;;;;;;;;;9.30;99.90;;;;;;4881033;29;19932;-83
2022/02/03 22:29:16;;;;;;;;;;;8.50;99.90;;;;;;4877053;29;19931;-82
2022/02/03 22:43:15;;;;;;;;;;;8.80;99.90;;;;;;4861240;29;19932;-81
2022/02/03 22:50:49;;;;;;;;;;;9.00;99.90;;;;;;4889440;29;19935;-83
2022/02/03 22:53:17;;;;;;;;;;;9.00;99.90;;;;;;4891696;29;19928;-82
2022/02/03 22:55:46;;;;;;;;;;;8.90;99.90;;;;;;4869779;29;19931;-81
2022/02/03 23:01:00;;;;;;;;;;;9.00;99.90;;;;;;4857858;29;20125;-81
2022/02/03 23:03:31;;;;;;;;;;;8.90;99.90;;;;;;4857776;29;19942;-83
2022/02/03 23:05:59;;;;;;;;;;;9.10;99.90;;;;;;4892219;29;20372;-81
2022/02/03 23:12:00;;;;;;;;;;;9.20;99.90;;;;;;4872135;29;19935;-81
2022/02/03 23:14:40;;;;;;;;;;;8.90;99.90;;;;;;4887051;29;19947;-81
2022/02/03 23:23:14;;;;;;;;;;;9.30;99.90;;;;;;4885974;29;19942;-82
2022/02/03 23:25:45;;;;;;;;;;;9.30;99.90;;;;;;4899448;29;20041;-84
2022/02/03 23:28:27;;;;;;;;;;;9.40;99.90;;;;;;4873584;29;19932;-84
2022/02/03 23:30:59;;;;;;;;;;;9.30;99.90;;;;;;4872189;29;19944;-81
2022/02/03 23:33:30;;;;;;;;;;;8.80;99.90;;;;;;4882600;29;19935;-80
2022/02/03 23:35:58;;;;;;;;;;;9.40;99.90;;;;;;4859632;29;19928;-82
2022/02/03 23:38:38;;;;;;;;;;;9.40;99.90;;;;;;4878724;29;19928;-82
